createdAt,value
2023-03-31T00:00:58.097Z,16.45
2023-03-31T00:03:26.882Z,16.40
2023-03-31T00:06:00.723Z,16.43
2023-03-31T00:08:35.897Z,16.49
2023-03-31T00:11:07.305Z,16.47
2023-03-31T00:13:36.213Z,16.51
2023-03-31T00:16:06.724Z,16.51
2023-03-31T00:18:35.597Z,16.51
2023-03-31T00:21:14.718Z,16.50
2023-03-31T00:23:43.284Z,16.50
2023-03-31T00:26:11.543Z,16.42
2023-03-31T00:28:39.502Z,16.37
2023-03-31T00:31:07.869Z,16.34
2023-03-31T00:33:35.944Z,16.32
2023-03-31T00:36:06.473Z,16.30
2023-03-31T00:38:37.060Z,16.29
2023-03-31T00:41:06.557Z,16.29
2023-03-31T00:43:37.229Z,16.22
2023-03-31T00:46:18.094Z,16.19
2023-03-31T00:48:49.910Z,16.22
2023-03-31T00:51:20.029Z,16.15
2023-03-31T00:53:57.483Z,16.08
2023-03-31T00:56:26.578Z,15.97
2023-03-31T00:58:58.081Z,15.98
2023-03-31T01:01:26.686Z,15.92
2023-03-31T01:03:55.287Z,15.96
2023-03-31T01:06:25.346Z,15.88
2023-03-31T01:08:54.802Z,15.88
2023-03-31T01:11:26.344Z,15.89
2023-03-31T01:13:57.078Z,15.87
2023-03-31T01:16:25.584Z,15.87
2023-03-31T01:18:57.577Z,15.94
2023-03-31T01:21:59.891Z,15.91
2023-03-31T01:25:05.425Z,15.93
2023-03-31T01:27:50.900Z,16.01
2023-03-31T01:30:36.691Z,15.95
2023-03-31T01:33:35.172Z,16.01
2023-03-31T01:36:33.675Z,15.97
2023-03-31T01:39:35.507Z,16.10
2023-03-31T01:42:10.220Z,16.14
2023-03-31T01:44:46.974Z,16.05
2023-03-31T01:47:23.014Z,16.12
2023-03-31T01:49:58.519Z,16.12
2023-03-31T01:52:33.924Z,16.09
2023-03-31T01:55:09.316Z,16.05
2023-03-31T01:57:42.580Z,16.06
2023-03-31T02:00:15.164Z,16.09
2023-03-31T02:02:49.807Z,16.13
2023-03-31T02:05:22.154Z,16.10
2023-03-31T02:07:54.956Z,16.09
2023-03-31T02:10:26.412Z,16.06
2023-03-31T02:13:02.568Z,16.03
2023-03-31T02:15:35.198Z,16.02
2023-03-31T02:18:11.112Z,16.02
2023-03-31T02:20:46.207Z,15.97
2023-03-31T02:23:17.648Z,15.94
2023-03-31T02:25:50.543Z,15.97
2023-03-31T02:28:23.491Z,15.96
2023-03-31T02:31:00.942Z,15.97
2023-03-31T02:33:29.562Z,15.99
2023-03-31T02:35:59.320Z,16.00
2023-03-31T02:38:27.827Z,16.02
2023-03-31T02:40:56.160Z,16.03
2023-03-31T02:43:25.637Z,16.02
2023-03-31T02:45:55.056Z,16.06
2023-03-31T02:48:27.886Z,16.08
2023-03-31T02:51:10.466Z,16.10
2023-03-31T02:53:54.260Z,16.08
2023-03-31T02:56:42.405Z,16.08
2023-03-31T02:59:42.371Z,16.07
2023-03-31T03:02:19.597Z,16.07
2023-03-31T03:05:09.866Z,16.03
2023-03-31T03:07:47.957Z,16.04
2023-03-31T03:10:21.991Z,16.06
2023-03-31T03:12:58.722Z,16.06
2023-03-31T03:15:33.726Z,16.13
2023-03-31T03:18:03.064Z,16.13
2023-03-31T03:20:33.947Z,16.12
2023-03-31T03:23:02.151Z,16.06
2023-03-31T03:25:31.294Z,15.99
2023-03-31T03:27:59.577Z,15.95
2023-03-31T03:30:29.230Z,15.88
2023-03-31T03:32:58.981Z,15.81
2023-03-31T03:35:27.424Z,15.78
2023-03-31T03:37:55.814Z,15.74
2023-03-31T03:40:28.605Z,15.71
2023-03-31T03:43:10.897Z,15.71
2023-03-31T03:45:41.147Z,15.68
2023-03-31T03:48:09.758Z,15.71
2023-03-31T03:50:38.770Z,15.70
2023-03-31T03:53:06.784Z,15.69
2023-03-31T03:55:35.340Z,15.70
2023-03-31T03:58:03.523Z,15.70
2023-03-31T04:00:31.817Z,15.70
2023-03-31T04:03:01.844Z,15.69
2023-03-31T04:05:30.075Z,15.72
2023-03-31T04:07:58.194Z,15.74
2023-03-31T04:10:26.870Z,15.74
2023-03-31T04:12:55.154Z,15.70
2023-03-31T04:15:23.261Z,15.72
2023-03-31T04:17:54.843Z,15.67
2023-03-31T04:20:27.899Z,15.62
2023-03-31T04:22:56.502Z,15.58
2023-03-31T04:25:24.924Z,15.55
2023-03-31T04:27:58.592Z,15.51
2023-03-31T04:30:30.902Z,15.43
2023-03-31T04:33:00.920Z,15.36
2023-03-31T04:35:42.869Z,15.29
2023-03-31T04:38:10.992Z,15.22
2023-03-31T04:40:41.457Z,15.22
2023-03-31T04:43:09.435Z,15.24
2023-03-31T04:45:37.540Z,15.27
2023-03-31T04:48:06.707Z,15.27
2023-03-31T04:50:36.827Z,15.21
2023-03-31T04:53:05.423Z,15.22
2023-03-31T04:55:34.203Z,15.21
2023-03-31T04:58:02.293Z,15.22
2023-03-31T05:00:30.618Z,15.20
2023-03-31T05:03:00.609Z,15.21
2023-03-31T05:05:28.865Z,15.19
2023-03-31T05:07:58.227Z,15.23
2023-03-31T05:10:26.568Z,15.20
2023-03-31T05:12:54.539Z,15.24
2023-03-31T05:15:24.553Z,15.24
2023-03-31T05:17:53.482Z,15.29
2023-03-31T05:20:21.961Z,15.29
2023-03-31T05:22:50.778Z,15.27
2023-03-31T05:25:20.772Z,15.27
2023-03-31T05:27:50.082Z,15.24
2023-03-31T05:30:19.101Z,15.19
2023-03-31T05:32:47.306Z,15.19
2023-03-31T05:35:15.451Z,15.16
2023-03-31T05:37:44.205Z,15.17
2023-03-31T05:40:12.923Z,15.20
2023-03-31T05:42:43.610Z,15.31
2023-03-31T05:45:12.493Z,15.42
2023-03-31T05:47:40.687Z,15.52
2023-03-31T05:50:09.601Z,15.63
2023-03-31T05:52:38.131Z,15.72
2023-03-31T05:55:06.893Z,15.82
2023-03-31T05:57:34.999Z,15.95
2023-03-31T06:00:10.307Z,16.04
2023-03-31T06:02:38.898Z,16.20
2023-03-31T06:05:07.430Z,16.36
2023-03-31T06:07:35.897Z,16.49
2023-03-31T06:10:04.570Z,16.63
2023-03-31T06:12:33.576Z,16.81
2023-03-31T06:15:01.646Z,16.95
2023-03-31T06:17:31.257Z,17.01
2023-03-31T06:19:59.320Z,16.99
2023-03-31T06:22:27.414Z,17.06
2023-03-31T06:24:55.781Z,17.10
2023-03-31T06:27:23.789Z,17.17
2023-03-31T06:29:51.849Z,17.11
2023-03-31T06:32:20.333Z,17.19
2023-03-31T06:34:49.906Z,17.15
2023-03-31T06:37:17.868Z,17.23
2023-03-31T06:39:46.220Z,17.31
2023-03-31T06:42:15.129Z,17.30
2023-03-31T06:44:43.176Z,17.30
2023-03-31T06:47:11.539Z,17.28
2023-03-31T06:49:39.644Z,17.34
2023-03-31T06:52:08.934Z,17.43
2023-03-31T06:54:37.441Z,17.47
2023-03-31T06:57:05.605Z,17.49
2023-03-31T06:59:33.794Z,17.49
2023-03-31T07:02:02.287Z,17.52
2023-03-31T07:04:30.648Z,17.58
2023-03-31T07:06:59.357Z,17.51
2023-03-31T07:09:29.264Z,17.54
2023-03-31T07:11:57.440Z,17.58
2023-03-31T07:14:25.929Z,17.63
2023-03-31T07:16:54.497Z,17.72
2023-03-31T07:19:23.022Z,17.79
2023-03-31T07:21:53.268Z,17.83
2023-03-31T07:24:21.852Z,17.92
2023-03-31T07:26:51.260Z,18.01
2023-03-31T07:29:20.638Z,18.07
2023-03-31T07:31:49.373Z,18.18
2023-03-31T07:34:17.479Z,18.21
2023-03-31T07:36:45.958Z,18.26
2023-03-31T07:39:14.477Z,18.33
2023-03-31T07:41:42.779Z,18.34
2023-03-31T07:44:12.284Z,18.39
2023-03-31T07:46:41.091Z,18.51
2023-03-31T07:49:10.468Z,18.54
2023-03-31T07:51:38.753Z,18.59
2023-03-31T07:54:07.151Z,18.74
2023-03-31T07:56:35.389Z,18.79
2023-03-31T07:59:03.578Z,18.85
2023-03-31T08:01:33.692Z,18.85
2023-03-31T08:04:02.481Z,18.76
2023-03-31T08:06:31.194Z,18.83
2023-03-31T08:09:00.109Z,18.86
2023-03-31T08:11:28.668Z,18.96
2023-03-31T08:13:56.859Z,19.07
2023-03-31T08:16:25.054Z,19.15
2023-03-31T08:18:54.927Z,19.18
2023-03-31T08:21:24.582Z,19.26
2023-03-31T08:23:55.033Z,19.41
2023-03-31T08:26:24.425Z,19.58
2023-03-31T08:28:53.917Z,19.70
2023-03-31T08:33:52.368Z,19.86
2023-03-31T08:36:21.960Z,19.63
2023-03-31T08:38:50.320Z,19.91
2023-03-31T08:41:31.970Z,20.01
2023-03-31T08:44:04.490Z,19.99
2023-03-31T08:46:35.661Z,19.99
2023-03-31T08:49:05.760Z,20.16
2023-03-31T08:51:41.009Z,20.25
2023-03-31T08:54:16.546Z,20.17
2023-03-31T08:56:49.777Z,20.24
2023-03-31T08:59:25.529Z,20.12
2023-03-31T09:02:00.947Z,19.86
2023-03-31T09:05:08.497Z,19.98
2023-03-31T09:07:48.353Z,19.99
2023-03-31T09:10:29.707Z,19.92
2023-03-31T09:13:08.605Z,19.81
2023-03-31T09:15:44.399Z,19.85
2023-03-31T09:18:19.048Z,19.84
2023-03-31T09:20:51.427Z,19.82
2023-03-31T09:23:28.607Z,19.65
2023-03-31T09:25:59.135Z,19.79
2023-03-31T09:28:32.749Z,19.89
2023-03-31T09:31:05.884Z,20.03
2023-03-31T09:33:34.228Z,20.11
2023-03-31T09:36:03.692Z,20.19
2023-03-31T09:38:33.258Z,20.33
2023-03-31T09:41:03.554Z,20.23
2023-03-31T09:43:35.215Z,20.24
2023-03-31T09:46:09.208Z,20.33
2023-03-31T09:48:39.872Z,20.14
2023-03-31T09:51:15.578Z,19.84
2023-03-31T09:53:51.613Z,19.75
2023-03-31T09:56:34.298Z,19.64
2023-03-31T09:59:03.818Z,19.60
2023-03-31T10:01:32.552Z,19.58
2023-03-31T10:04:02.795Z,19.48
2023-03-31T10:06:31.446Z,19.29
2023-03-31T10:09:06.361Z,19.20
2023-03-31T10:11:34.943Z,19.10
2023-03-31T10:14:04.751Z,19.08
2023-03-31T10:16:34.519Z,18.97
2023-03-31T10:19:22.378Z,18.81
2023-03-31T10:21:57.186Z,18.81
2023-03-31T10:24:28.643Z,18.65
2023-03-31T10:26:58.578Z,18.75
2023-03-31T10:29:33.301Z,18.70
2023-03-31T10:32:06.217Z,18.60
2023-03-31T10:34:35.508Z,18.55
2023-03-31T10:37:05.739Z,18.66
2023-03-31T10:39:35.352Z,18.65
2023-03-31T10:42:03.980Z,18.62
2023-03-31T10:44:34.765Z,18.66
2023-03-31T10:47:17.699Z,18.65
2023-03-31T10:49:48.801Z,18.61
2023-03-31T10:52:19.979Z,18.63
2023-03-31T10:54:54.651Z,18.64
2023-03-31T10:57:32.438Z,18.67
2023-03-31T11:00:13.832Z,18.64
2023-03-31T11:03:04.592Z,18.61
2023-03-31T11:05:40.615Z,18.64
2023-03-31T11:08:24.898Z,18.60
2023-03-31T11:11:06.517Z,18.60
2023-03-31T11:13:41.844Z,18.55
2023-03-31T11:16:23.448Z,18.50
2023-03-31T11:19:06.960Z,18.44
2023-03-31T11:21:49.140Z,18.41
2023-03-31T11:24:31.844Z,18.38
2023-03-31T11:27:10.063Z,18.42
2023-03-31T11:29:46.165Z,18.46
2023-03-31T11:32:34.790Z,18.42
2023-03-31T11:35:23.053Z,18.47
2023-03-31T11:38:01.729Z,18.45
2023-03-31T11:40:40.739Z,18.49
2023-03-31T11:43:25.796Z,18.37
2023-03-31T11:45:57.629Z,18.46
2023-03-31T11:48:33.518Z,18.43
2023-03-31T11:51:04.156Z,18.43
2023-03-31T11:53:36.760Z,18.44
2023-03-31T11:56:08.160Z,18.41
2023-03-31T11:58:41.109Z,18.32
2023-03-31T12:01:18.881Z,18.31
2023-03-31T12:03:58.005Z,18.37
2023-03-31T12:06:30.864Z,18.44
2023-03-31T12:09:15.168Z,18.50
2023-03-31T12:11:49.771Z,18.43
2023-03-31T12:14:30.490Z,18.47
2023-03-31T12:17:03.634Z,18.53
2023-03-31T12:19:36.690Z,18.51
2023-03-31T12:22:09.096Z,18.53
2023-03-31T12:24:37.768Z,18.57
2023-03-31T12:27:13.431Z,18.65
2023-03-31T12:29:46.423Z,18.66
2023-03-31T12:32:18.298Z,18.78
2023-03-31T12:34:53.131Z,18.83
2023-03-31T12:37:39.604Z,18.81
2023-03-31T12:40:19.371Z,18.75
2023-03-31T12:43:00.622Z,18.92
2023-03-31T12:45:32.295Z,19.02
2023-03-31T12:48:25.863Z,19.09
2023-03-31T12:51:05.219Z,19.27
2023-03-31T12:53:40.600Z,19.40
2023-03-31T12:56:08.907Z,19.45
2023-03-31T12:58:42.620Z,19.58
2023-03-31T13:01:17.923Z,19.72
2023-03-31T13:03:49.911Z,19.86
2023-03-31T13:06:51.978Z,19.88
2023-03-31T13:09:43.493Z,19.91
2023-03-31T13:12:16.901Z,20.10
2023-03-31T13:14:47.420Z,20.37
2023-03-31T13:17:24.984Z,20.64
2023-03-31T13:19:54.460Z,20.91
2023-03-31T13:22:32.267Z,21.31
2023-03-31T13:25:28.722Z,21.78
2023-03-31T13:27:58.541Z,21.98
2023-03-31T13:30:46.987Z,22.27
2023-03-31T13:33:21.588Z,22.18
2023-03-31T13:35:53.826Z,22.35
2023-03-31T13:38:32.023Z,22.33
2023-03-31T13:41:12.036Z,22.34
2023-03-31T13:44:00.137Z,22.50
2023-03-31T13:46:51.981Z,22.51
2023-03-31T13:49:45.454Z,22.79
2023-03-31T13:52:14.146Z,22.84
2023-03-31T13:55:20.706Z,22.68
2023-03-31T13:58:34.166Z,22.48
2023-03-31T14:01:17.686Z,22.70
2023-03-31T14:03:59.943Z,22.77
2023-03-31T14:06:37.062Z,22.93
2023-03-31T14:09:09.072Z,23.27
2023-03-31T14:11:37.102Z,23.45
2023-03-31T14:14:07.810Z,23.59
2023-03-31T14:16:41.195Z,23.62
2023-03-31T14:19:30.152Z,23.10
2023-03-31T14:22:08.045Z,22.66
2023-03-31T14:24:42.707Z,22.23
2023-03-31T14:27:19.789Z,22.21
2023-03-31T14:29:54.172Z,21.97
2023-03-31T14:32:33.464Z,21.63
2023-03-31T14:35:19.405Z,21.44
2023-03-31T14:37:49.079Z,21.23
2023-03-31T14:40:18.680Z,21.22
2023-03-31T14:42:49.804Z,21.17
2023-03-31T14:45:22.016Z,21.08
2023-03-31T14:47:58.076Z,20.93
2023-03-31T14:50:32.682Z,20.82
2023-03-31T14:53:02.415Z,20.26
2023-03-31T14:55:54.169Z,20.35
2023-03-31T14:58:27.256Z,20.05
2023-03-31T15:00:56.149Z,19.98
2023-03-31T15:03:27.460Z,19.98
2023-03-31T15:06:00.588Z,19.78
2023-03-31T15:08:31.477Z,19.31
2023-03-31T15:11:11.782Z,19.44
2023-03-31T15:13:56.765Z,19.37
2023-03-31T15:16:33.307Z,19.51
2023-03-31T15:19:06.299Z,19.55
2023-03-31T15:21:38.985Z,19.39
2023-03-31T15:24:09.142Z,19.51
2023-03-31T15:26:42.247Z,19.22
2023-03-31T15:29:13.785Z,19.18
2023-03-31T15:31:42.341Z,19.42
2023-03-31T15:34:17.031Z,19.12
2023-03-31T15:36:45.880Z,19.22
2023-03-31T15:39:15.957Z,19.31
2023-03-31T15:41:45.903Z,19.35
2023-03-31T15:44:30.748Z,19.28
2023-03-31T15:47:03.154Z,19.51
2023-03-31T15:49:31.523Z,19.60
2023-03-31T15:52:01.358Z,19.66
2023-03-31T15:54:35.152Z,19.59
2023-03-31T15:57:05.557Z,19.75
2023-03-31T15:59:54.806Z,19.61
2023-03-31T16:02:27.072Z,19.71
2023-03-31T16:04:58.219Z,19.83
2023-03-31T16:07:29.726Z,19.86
2023-03-31T16:10:04.262Z,19.81
2023-03-31T16:12:36.260Z,19.60
2023-03-31T16:15:09.903Z,19.49
2023-03-31T16:17:43.134Z,19.16
2023-03-31T16:20:19.888Z,19.04
2023-03-31T16:22:49.911Z,18.78
2023-03-31T16:25:22.325Z,18.65
2023-03-31T16:27:53.458Z,18.60
2023-03-31T16:30:23.794Z,18.60
2023-03-31T16:33:03.589Z,18.38
2023-03-31T16:35:33.438Z,18.34
2023-03-31T16:38:02.752Z,18.33
2023-03-31T16:40:36.440Z,18.46
2023-03-31T16:43:09.406Z,18.18
2023-03-31T16:45:37.422Z,18.01
2023-03-31T16:48:15.500Z,18.02
2023-03-31T16:50:45.479Z,18.19
2023-03-31T16:53:14.196Z,17.96
2023-03-31T16:55:44.334Z,17.84
2023-03-31T16:58:12.731Z,17.66
2023-03-31T17:00:42.050Z,18.02
2023-03-31T17:03:11.859Z,17.97
2023-03-31T17:05:41.356Z,17.87
2023-03-31T17:08:10.207Z,17.88
2023-03-31T17:10:39.651Z,17.80
2023-03-31T17:13:10.509Z,17.62
2023-03-31T17:15:39.224Z,17.50
2023-03-31T17:18:07.950Z,17.69
2023-03-31T17:20:36.899Z,17.65
2023-03-31T17:23:21.762Z,17.59
2023-03-31T17:26:00.054Z,17.59
2023-03-31T17:28:32.001Z,17.63
2023-03-31T17:31:02.079Z,17.56
2023-03-31T17:33:31.658Z,17.59
2023-03-31T17:35:59.657Z,17.58
2023-03-31T17:38:28.103Z,17.55
2023-03-31T17:40:56.279Z,17.50
2023-03-31T17:43:24.707Z,17.42
2023-03-31T17:46:01.810Z,17.28
2023-03-31T17:48:29.960Z,17.36
2023-03-31T17:50:59.133Z,17.36
2023-03-31T17:53:27.400Z,17.39
2023-03-31T17:55:55.678Z,17.38
2023-03-31T17:58:24.035Z,17.40
2023-03-31T18:00:52.267Z,17.36
2023-03-31T18:03:22.032Z,17.30
2023-03-31T18:05:50.653Z,17.24
2023-03-31T18:08:18.736Z,17.17
2023-03-31T18:10:47.127Z,17.12
2023-03-31T18:13:16.307Z,17.08
2023-03-31T18:15:48.409Z,17.06
2023-03-31T18:18:16.800Z,17.00
2023-03-31T18:20:46.316Z,17.01
2023-03-31T18:23:14.816Z,17.04
2023-03-31T18:25:44.026Z,17.04
2023-03-31T18:28:12.369Z,17.03
2023-03-31T18:30:40.433Z,17.02
2023-03-31T18:33:08.809Z,16.99
2023-03-31T18:35:37.085Z,16.93
2023-03-31T18:38:07.220Z,16.92
2023-03-31T18:40:36.052Z,16.91
2023-03-31T18:43:04.198Z,16.85
2023-03-31T18:45:33.015Z,16.82
2023-03-31T18:48:02.500Z,16.82
2023-03-31T18:50:31.109Z,16.82
2023-03-31T18:52:59.183Z,16.87
2023-03-31T18:55:29.639Z,16.90
2023-03-31T18:57:57.995Z,16.89
2023-03-31T19:00:26.179Z,16.92
2023-03-31T19:02:54.745Z,16.91
2023-03-31T19:05:22.992Z,16.91
2023-03-31T19:07:51.318Z,16.94
2023-03-31T19:10:19.689Z,16.94
2023-03-31T19:12:49.759Z,16.90
2023-03-31T19:15:18.672Z,16.88
2023-03-31T19:17:47.170Z,16.91
2023-03-31T19:20:17.429Z,16.87
2023-03-31T19:22:46.412Z,16.86
2023-03-31T19:25:15.014Z,16.86
2023-03-31T19:27:43.720Z,16.84
2023-03-31T19:30:18.568Z,16.86
2023-03-31T19:32:48.084Z,16.79
2023-03-31T19:35:16.742Z,16.79
2023-03-31T19:37:45.339Z,16.73
2023-03-31T19:40:14.557Z,16.73
2023-03-31T19:42:44.328Z,16.71
2023-03-31T19:45:13.888Z,16.68
2023-03-31T19:47:42.216Z,16.66
2023-03-31T19:50:14.335Z,16.64
2023-03-31T19:52:46.816Z,16.62
2023-03-31T19:55:16.165Z,16.67
2023-03-31T19:57:44.507Z,16.68
2023-03-31T20:00:18.231Z,16.66
2023-03-31T20:02:48.381Z,16.63
2023-03-31T20:05:16.990Z,16.66
2023-03-31T20:07:45.151Z,16.64
2023-03-31T20:10:14.002Z,16.63
2023-03-31T20:12:42.167Z,16.63
2023-03-31T20:15:10.532Z,16.54
2023-03-31T20:17:40.393Z,16.56
2023-03-31T20:20:09.856Z,16.57
2023-03-31T20:22:40.513Z,16.54
2023-03-31T20:25:09.652Z,16.52
2023-03-31T20:27:37.690Z,16.50
2023-03-31T20:30:07.003Z,16.50
2023-03-31T20:32:35.704Z,16.45
2023-03-31T20:35:06.620Z,16.45
2023-03-31T20:37:34.682Z,16.47
2023-03-31T20:40:04.084Z,16.46
2023-03-31T20:42:32.518Z,16.46
2023-03-31T20:45:00.568Z,16.46
2023-03-31T20:47:29.577Z,16.46
2023-03-31T20:49:57.738Z,16.37
2023-03-31T20:52:27.056Z,16.50
2023-03-31T20:54:55.607Z,16.43
2023-03-31T20:57:24.431Z,16.52
2023-03-31T20:59:52.479Z,16.43
2023-03-31T21:02:20.911Z,16.45
2023-03-31T21:04:51.073Z,16.45
2023-03-31T21:07:19.298Z,16.46
2023-03-31T21:09:48.948Z,16.48
2023-03-31T21:12:17.161Z,16.48
2023-03-31T21:14:45.698Z,16.48
2023-03-31T21:17:14.151Z,16.46
2023-03-31T21:19:42.326Z,16.52
2023-03-31T21:22:10.437Z,16.47
2023-03-31T21:24:38.992Z,16.43
2023-03-31T21:27:08.440Z,16.45
2023-03-31T21:29:36.706Z,16.48
2023-03-31T21:32:06.824Z,16.50
2023-03-31T21:34:35.009Z,16.49
2023-03-31T21:37:02.963Z,16.49
2023-03-31T21:39:31.302Z,16.45
2023-03-31T21:41:59.358Z,16.52
2023-03-31T21:44:28.886Z,16.47
2023-03-31T21:46:57.296Z,16.44
2023-03-31T21:49:25.306Z,16.41
2023-03-31T21:51:53.352Z,16.44
2023-03-31T21:54:22.793Z,16.44
2023-03-31T21:56:51.123Z,16.44
2023-03-31T21:59:19.268Z,16.42
2023-03-31T22:01:49.068Z,16.42
2023-03-31T22:04:17.580Z,16.43
2023-03-31T22:06:45.836Z,16.43
2023-03-31T22:09:14.130Z,16.42
2023-03-31T22:11:42.374Z,16.41
2023-03-31T22:14:11.094Z,16.39
2023-03-31T22:16:39.131Z,16.37
2023-03-31T22:19:09.553Z,16.30
2023-03-31T22:21:41.525Z,16.24
2023-03-31T22:24:12.803Z,16.21
2023-03-31T22:26:41.070Z,16.24
2023-03-31T22:29:09.673Z,16.23
2023-03-31T22:31:37.935Z,16.22
2023-03-31T22:34:06.853Z,16.15
2023-03-31T22:36:37.519Z,16.16
2023-03-31T22:39:06.325Z,16.14
2023-03-31T22:41:35.017Z,16.16
2023-03-31T22:44:04.198Z,16.16
2023-03-31T22:46:36.025Z,16.08
2023-03-31T22:49:05.988Z,16.16
2023-03-31T22:51:35.041Z,16.12
2023-03-31T22:54:05.353Z,16.14
2023-03-31T22:56:35.861Z,16.09
2023-03-31T22:59:07.971Z,16.12
2023-03-31T23:01:50.065Z,16.09
2023-03-31T23:04:21.039Z,16.13
2023-03-31T23:06:56.095Z,16.08
2023-03-31T23:09:32.212Z,16.10
2023-03-31T23:12:06.959Z,16.11
2023-03-31T23:14:36.296Z,16.12
2023-03-31T23:17:06.984Z,16.08
2023-03-31T23:19:37.468Z,16.10
2023-03-31T23:22:11.746Z,16.10
2023-03-31T23:24:45.745Z,16.06
2023-03-31T23:27:21.150Z,16.08
2023-03-31T23:29:50.565Z,16.09
2023-03-31T23:32:28.113Z,16.11
2023-03-31T23:35:02.701Z,16.04
2023-03-31T23:37:33.798Z,16.05
2023-03-31T23:40:05.326Z,16.05
2023-03-31T23:42:35.458Z,16.04
2023-03-31T23:45:05.673Z,16.04
2023-03-31T23:47:40.839Z,16.04
2023-03-31T23:50:10.249Z,16.05
2023-03-31T23:52:40.287Z,16.07
2023-03-31T23:55:14.354Z,16.05
2023-03-31T23:57:44.086Z,16.08
